createdAt,value
2022-08-12T00:02:02.782Z,14.30
2022-08-12T00:04:49.776Z,14.10
2022-08-12T00:07:35.194Z,14.00
2022-08-12T00:10:20.360Z,13.90
2022-08-12T00:13:05.893Z,13.90
2022-08-12T00:15:52.265Z,14.00
2022-08-12T00:18:37.634Z,14.00
2022-08-12T00:21:23.422Z,13.90
2022-08-12T00:24:10.670Z,13.80
2022-08-12T00:26:59.277Z,13.80
2022-08-12T00:29:47.939Z,13.80
2022-08-12T00:32:54.522Z,13.80
2022-08-12T00:35:39.189Z,13.80
2022-08-12T00:38:26.035Z,13.80
2022-08-12T00:41:12.452Z,13.80
2022-08-12T00:43:41.645Z,13.80
2022-08-12T00:46:27.003Z,13.70
2022-08-12T00:48:54.258Z,13.70
2022-08-12T00:51:21.364Z,13.70
2022-08-12T00:53:48.977Z,13.60
2022-08-12T00:56:15.695Z,13.50
2022-08-12T00:58:46.947Z,13.50
2022-08-12T01:01:14.382Z,13.40
2022-08-12T01:03:59.803Z,13.50
2022-08-12T01:06:45.785Z,13.60
2022-08-12T01:09:37.579Z,13.40
2022-08-12T01:12:05.827Z,13.50
2022-08-12T01:14:32.849Z,13.40
2022-08-12T01:16:59.747Z,13.40
2022-08-12T01:19:26.420Z,13.40
2022-08-12T01:22:11.900Z,13.30
2022-08-12T01:24:47.906Z,13.30
2022-08-12T01:27:15.294Z,13.20
2022-08-12T01:29:43.905Z,13.20
2022-08-12T01:32:12.886Z,13.20
2022-08-12T01:34:41.204Z,13.10
2022-08-12T01:37:09.041Z,13.10
2022-08-12T01:40:31.554Z,13.10
2022-08-12T01:42:48.155Z,13.10
2022-08-12T01:45:15.674Z,13.00
2022-08-12T01:48:00.884Z,13.00
2022-08-12T01:50:43.088Z,13.00
2022-08-12T01:53:12.028Z,12.90
2022-08-12T01:55:48.272Z,12.90
2022-08-12T01:58:18.868Z,12.80
2022-08-12T02:00:55.299Z,13.00
2022-08-12T02:04:00.951Z,13.00
2022-08-12T02:06:52.169Z,12.90
2022-08-12T02:09:39.733Z,13.00
2022-08-12T02:12:13.182Z,12.90
2022-08-12T02:14:51.805Z,13.00
2022-08-12T02:17:56.376Z,12.90
2022-08-12T02:20:51.569Z,12.90
2022-08-12T02:23:20.765Z,12.90
2022-08-12T02:25:47.592Z,12.90
2022-08-12T02:28:14.339Z,12.90
2022-08-12T02:30:41.982Z,12.90
2022-08-12T02:33:09.536Z,12.90
2022-08-12T02:35:37.015Z,12.80
2022-08-12T02:38:05.475Z,12.70
2022-08-12T02:40:35.086Z,12.70
2022-08-12T02:43:05.819Z,12.60
2022-08-12T02:45:38.111Z,12.60
2022-08-12T02:48:08.756Z,12.50
2022-08-12T02:50:39.666Z,12.50
2022-08-12T02:53:07.680Z,12.50
2022-08-12T02:55:36.125Z,12.60
2022-08-12T02:58:11.996Z,12.40
2022-08-12T03:00:39.681Z,12.40
2022-08-12T03:03:08.231Z,12.40
2022-08-12T03:05:39.251Z,12.50
2022-08-12T03:08:31.395Z,12.50
2022-08-12T03:11:03.273Z,12.40
2022-08-12T03:13:33.381Z,12.50
2022-08-12T03:16:00.428Z,12.40
2022-08-12T03:18:28.840Z,12.30
2022-08-12T03:20:56.331Z,12.30
2022-08-12T03:23:29.604Z,12.20
2022-08-12T03:25:59.022Z,12.30
2022-08-12T03:28:44.452Z,12.20
2022-08-12T03:31:11.297Z,12.20
2022-08-12T03:33:39.876Z,12.20
2022-08-12T03:36:08.300Z,12.30
2022-08-12T03:38:37.347Z,12.20
2022-08-12T03:41:24.162Z,12.20
2022-08-12T03:44:20.295Z,12.30
2022-08-12T03:47:15.714Z,12.30
2022-08-12T03:50:01.199Z,12.40
2022-08-12T03:52:46.311Z,12.50
2022-08-12T03:55:31.544Z,12.50
2022-08-12T03:58:17.115Z,12.40
2022-08-12T04:00:46.181Z,12.50
2022-08-12T04:03:31.771Z,12.50
2022-08-12T04:05:58.540Z,12.60
2022-08-12T04:08:26.364Z,12.60
2022-08-12T04:11:12.669Z,12.50
2022-08-12T04:13:40.870Z,12.40
2022-08-12T04:16:10.226Z,12.30
2022-08-12T04:18:38.742Z,12.30
2022-08-12T04:21:10.044Z,12.30
2022-08-12T04:23:42.173Z,12.40
2022-08-12T04:26:10.666Z,12.50
2022-08-12T04:28:37.346Z,12.50
2022-08-12T04:31:04.785Z,12.60
2022-08-12T04:33:32.531Z,12.60
2022-08-12T04:35:59.272Z,12.60
2022-08-12T04:38:26.758Z,12.50
2022-08-12T04:40:53.973Z,12.60
2022-08-12T04:43:59.746Z,12.70
2022-08-12T04:46:07.617Z,12.70
2022-08-12T04:48:34.423Z,12.70
2022-08-12T04:51:02.133Z,12.70
2022-08-12T04:53:28.987Z,12.70
2022-08-12T04:55:55.759Z,12.80
2022-08-12T04:58:29.524Z,12.80
2022-08-12T05:00:56.875Z,12.80
2022-08-12T05:03:25.723Z,12.80
2022-08-12T05:05:52.508Z,12.90
2022-08-12T05:08:20.050Z,12.90
2022-08-12T05:10:47.387Z,13.00
2022-08-12T05:13:16.617Z,13.00
2022-08-12T05:15:53.113Z,13.00
2022-08-12T05:18:32.482Z,13.10
2022-08-12T05:20:59.332Z,13.20
2022-08-12T05:23:26.114Z,13.40
2022-08-12T05:25:56.494Z,13.50
2022-08-12T05:28:24.370Z,13.40
2022-08-12T05:30:51.362Z,13.60
2022-08-12T05:33:18.094Z,13.70
2022-08-12T05:35:45.320Z,13.80
2022-08-12T05:38:31.546Z,14.00
2022-08-12T05:40:58.879Z,14.10
2022-08-12T05:43:25.938Z,14.30
2022-08-12T05:45:52.856Z,14.50
2022-08-12T05:48:19.513Z,14.80
2022-08-12T05:50:46.567Z,15.00
2022-08-12T05:53:13.559Z,15.30
2022-08-12T05:55:40.677Z,15.50
2022-08-12T05:58:08.170Z,15.70
2022-08-12T06:00:35.629Z,15.80
2022-08-12T06:03:03.145Z,15.90
2022-08-12T06:05:52.662Z,16.10
2022-08-12T06:08:21.246Z,16.10
2022-08-12T06:10:49.528Z,16.30
2022-08-12T06:13:25.620Z,16.40
2022-08-12T06:16:02.957Z,16.50
2022-08-12T06:18:31.116Z,16.60
2022-08-12T06:21:01.918Z,16.80
2022-08-12T06:23:29.939Z,17.00
2022-08-12T06:25:57.154Z,17.00
2022-08-12T06:28:24.045Z,17.10
2022-08-12T06:31:08.637Z,17.20
2022-08-12T06:34:00.382Z,17.30
2022-08-12T06:36:29.286Z,17.20
2022-08-12T06:38:56.432Z,17.50
2022-08-12T06:42:10.814Z,17.50
2022-08-12T06:44:28.511Z,17.60
2022-08-12T06:46:58.319Z,17.80
2022-08-12T06:49:25.227Z,17.80
2022-08-12T06:51:57.054Z,18.00
2022-08-12T06:54:29.818Z,18.10
2022-08-12T06:57:05.205Z,18.20
2022-08-12T06:59:46.573Z,18.10
2022-08-12T07:02:13.305Z,18.30
2022-08-12T07:04:40.648Z,18.40
2022-08-12T07:07:10.507Z,18.50
2022-08-12T07:09:59.498Z,18.50
2022-08-12T07:12:29.371Z,18.60
2022-08-12T07:14:57.018Z,18.60
2022-08-12T07:17:23.691Z,18.60
2022-08-12T07:19:52.022Z,18.60
2022-08-12T07:22:18.939Z,18.70
2022-08-12T07:25:05.805Z,18.80
2022-08-12T07:27:37.573Z,19.00
2022-08-12T07:30:05.388Z,19.00
2022-08-12T07:32:32.268Z,19.20
2022-08-12T07:34:58.974Z,19.30
2022-08-12T07:37:25.666Z,19.50
2022-08-12T07:40:00.654Z,19.70
2022-08-12T07:42:28.347Z,19.60
2022-08-12T07:44:56.056Z,19.70
2022-08-12T07:47:23.181Z,19.80
2022-08-12T07:50:04.534Z,19.90
2022-08-12T07:52:43.777Z,19.90
2022-08-12T07:55:11.514Z,20.00
2022-08-12T07:57:50.507Z,20.10
2022-08-12T08:00:18.412Z,20.20
2022-08-12T08:02:45.135Z,20.20
2022-08-12T08:05:11.865Z,20.00
2022-08-12T08:07:38.745Z,19.90
2022-08-12T08:10:07.401Z,19.90
2022-08-12T08:12:52.415Z,19.90
2022-08-12T08:15:20.293Z,19.90
2022-08-12T08:18:02.678Z,19.80
2022-08-12T08:20:30.977Z,19.80
2022-08-12T08:22:58.639Z,19.90
2022-08-12T08:25:37.268Z,19.90
2022-08-12T08:28:09.153Z,20.00
2022-08-12T08:30:38.352Z,20.20
2022-08-12T08:33:24.813Z,20.30
2022-08-12T08:35:54.741Z,20.40
2022-08-12T08:38:33.031Z,20.50
2022-08-12T08:42:19.029Z,20.70
2022-08-12T08:44:08.252Z,20.90
2022-08-12T08:46:37.696Z,21.10
2022-08-12T08:49:05.454Z,21.20
2022-08-12T08:51:32.423Z,21.40
2022-08-12T08:53:59.107Z,21.60
2022-08-12T08:56:27.248Z,21.70
2022-08-12T08:58:53.953Z,21.80
2022-08-12T09:01:23.483Z,21.80
2022-08-12T09:05:07.581Z,21.70
2022-08-12T09:06:53.404Z,21.80
2022-08-12T09:09:21.278Z,21.90
2022-08-12T09:12:12.167Z,21.60
2022-08-12T09:17:42.821Z,21.30
2022-08-12T09:20:15.818Z,21.30
2022-08-12T09:22:46.870Z,21.30
2022-08-12T09:25:25.367Z,21.30
2022-08-12T09:28:03.985Z,21.40
2022-08-12T09:30:41.081Z,21.40
2022-08-12T09:33:18.874Z,21.30
2022-08-12T09:35:46.993Z,21.30
2022-08-12T09:38:32.033Z,21.50
2022-08-12T09:42:07.860Z,21.60
2022-08-12T09:44:05.651Z,21.60
2022-08-12T09:46:34.448Z,21.50
2022-08-12T09:49:03.979Z,21.60
2022-08-12T09:51:37.393Z,21.70
2022-08-12T09:54:08.479Z,21.70
2022-08-12T09:57:02.725Z,21.80
2022-08-12T10:00:16.222Z,22.00
2022-08-12T10:02:45.848Z,21.90
2022-08-12T10:05:17.930Z,21.90
2022-08-12T10:07:47.411Z,21.80
2022-08-12T10:10:22.848Z,21.80
2022-08-12T10:13:12.136Z,22.00
2022-08-12T10:16:02.029Z,22.00
2022-08-12T10:18:35.319Z,22.00
2022-08-12T10:21:09.941Z,22.00
2022-08-12T10:23:40.360Z,21.90
2022-08-12T10:26:36.794Z,22.10
2022-08-12T10:30:37.196Z,22.10
2022-08-12T10:32:20.654Z,22.10
2022-08-12T10:34:53.761Z,22.00
2022-08-12T10:38:35.402Z,22.00
2022-08-12T10:40:15.616Z,22.10
2022-08-12T10:43:05.679Z,22.20
2022-08-12T10:45:32.402Z,22.40
2022-08-12T10:48:19.399Z,22.70
2022-08-12T10:51:01.778Z,23.00
2022-08-12T10:53:44.242Z,23.20
2022-08-12T10:56:13.532Z,23.40
2022-08-12T10:58:40.391Z,23.70
2022-08-12T11:01:49.139Z,23.80
2022-08-12T11:04:19.666Z,23.90
2022-08-12T11:07:06.190Z,23.90
2022-08-12T11:09:59.861Z,23.70
2022-08-12T11:12:56.183Z,23.60
2022-08-12T11:15:21.184Z,23.40
2022-08-12T11:17:53.252Z,23.30
2022-08-12T11:20:29.059Z,23.30
2022-08-12T11:22:59.455Z,23.40
2022-08-12T11:25:56.743Z,23.40
2022-08-12T11:28:14.107Z,23.50
2022-08-12T11:30:41.510Z,23.60
2022-08-12T11:33:11.983Z,23.60
2022-08-12T11:35:53.124Z,23.70
2022-08-12T11:38:24.740Z,23.70
2022-08-12T11:40:51.643Z,23.80
2022-08-12T11:43:19.855Z,23.60
2022-08-12T11:45:47.953Z,23.60
2022-08-12T11:48:20.161Z,23.50
2022-08-12T11:50:54.241Z,23.50
2022-08-12T11:53:57.566Z,23.60
2022-08-12T11:56:08.232Z,23.70
2022-08-12T12:01:58.789Z,23.70
2022-08-12T12:02:02.376Z,23.60
2022-08-12T12:04:11.761Z,23.70
2022-08-12T12:06:38.646Z,23.70
2022-08-12T12:09:08.148Z,23.70
2022-08-12T12:11:48.919Z,23.90
2022-08-12T12:14:16.374Z,24.10
2022-08-12T12:16:48.219Z,24.20
2022-08-12T12:19:17.801Z,24.40
2022-08-12T12:21:48.207Z,24.50
2022-08-12T12:24:21.866Z,24.40
2022-08-12T12:27:00.723Z,24.40
2022-08-12T12:30:17.533Z,24.30
2022-08-12T12:32:18.989Z,24.20
2022-08-12T12:35:14.554Z,23.90
2022-08-12T12:38:04.003Z,23.80
2022-08-12T12:40:19.703Z,23.90
2022-08-12T12:42:55.832Z,24.00
2022-08-12T12:45:25.944Z,24.10
2022-08-12T12:48:00.340Z,24.00
2022-08-12T12:50:35.355Z,24.00
2022-08-12T12:53:03.782Z,23.90
2022-08-12T12:55:35.635Z,23.70
2022-08-12T12:58:04.708Z,23.80
2022-08-12T13:00:32.710Z,23.90
2022-08-12T13:03:00.155Z,24.00
2022-08-12T13:05:42.056Z,24.20
2022-08-12T13:08:28.276Z,24.40
2022-08-12T13:11:04.284Z,24.40
2022-08-12T13:14:09.923Z,24.30
2022-08-12T13:16:21.653Z,24.10
2022-08-12T13:18:52.411Z,24.00
2022-08-12T13:21:33.400Z,24.00
2022-08-12T13:24:09.640Z,23.90
2022-08-12T13:26:40.390Z,24.00
2022-08-12T13:29:11.354Z,23.90
2022-08-12T13:31:46.326Z,23.90
2022-08-12T13:34:33.282Z,24.00
2022-08-12T13:37:09.777Z,23.90
2022-08-12T13:39:37.098Z,23.80
2022-08-12T13:42:03.993Z,23.70
2022-08-12T13:44:31.343Z,23.60
2022-08-12T13:47:00.452Z,23.50
2022-08-12T13:49:53.794Z,23.40
2022-08-12T13:52:14.366Z,23.50
2022-08-12T13:54:41.146Z,23.70
2022-08-12T13:57:11.195Z,24.00
2022-08-12T13:59:48.236Z,24.20
2022-08-12T14:02:15.997Z,24.30
2022-08-12T14:04:45.518Z,24.20
2022-08-12T14:07:23.528Z,24.00
2022-08-12T14:10:11.533Z,23.80
2022-08-12T14:12:50.787Z,23.70
2022-08-12T14:15:21.622Z,23.60
2022-08-12T14:18:08.137Z,23.70
2022-08-12T14:20:35.085Z,23.70
2022-08-12T14:24:01.437Z,23.80
2022-08-12T14:25:48.737Z,23.90
2022-08-12T14:28:19.223Z,23.90
2022-08-12T14:31:00.067Z,24.10
2022-08-12T14:33:43.956Z,24.20
2022-08-12T14:36:12.848Z,24.50
2022-08-12T14:38:44.295Z,24.70
2022-08-12T14:41:14.627Z,25.00
2022-08-12T14:43:58.780Z,25.10
2022-08-12T14:46:29.025Z,25.30
2022-08-12T14:48:55.743Z,25.30
2022-08-12T14:52:43.944Z,25.30
2022-08-12T14:57:19.659Z,24.80
2022-08-12T15:00:04.549Z,24.80
2022-08-12T15:02:31.226Z,24.90
2022-08-12T15:05:00.803Z,25.00
2022-08-12T15:07:34.128Z,25.30
2022-08-12T15:10:31.993Z,25.40
2022-08-12T15:12:59.741Z,25.40
2022-08-12T15:15:28.269Z,25.30
2022-08-12T15:18:02.125Z,25.10
2022-08-12T15:20:37.817Z,24.90
2022-08-12T15:23:17.316Z,24.90
2022-08-12T15:25:47.731Z,24.90
2022-08-12T15:28:21.586Z,24.90
2022-08-12T15:30:52.148Z,25.00
2022-08-12T15:33:21.029Z,25.00
2022-08-12T15:35:53.877Z,25.10
2022-08-12T15:38:22.316Z,25.10
2022-08-12T15:40:55.135Z,25.10
2022-08-12T15:44:16.411Z,25.20
2022-08-12T15:46:15.921Z,25.30
2022-08-12T15:48:46.807Z,25.30
2022-08-12T15:51:57.336Z,25.40
2022-08-12T15:54:31.004Z,25.40
2022-08-12T15:57:05.855Z,25.50
2022-08-12T16:00:03.912Z,25.50
2022-08-12T16:02:22.753Z,25.60
2022-08-12T16:04:53.524Z,25.50
2022-08-12T16:07:30.026Z,25.30
2022-08-12T16:10:06.833Z,25.10
2022-08-12T16:12:39.749Z,25.00
2022-08-12T16:15:07.141Z,25.10
2022-08-12T16:18:15.098Z,25.20
2022-08-12T16:20:33.213Z,25.20
2022-08-12T16:23:04.056Z,25.20
2022-08-12T16:26:00.034Z,25.30
2022-08-12T16:28:18.165Z,25.10
2022-08-12T16:30:49.922Z,25.20
2022-08-12T16:33:17.893Z,25.20
2022-08-12T16:35:45.630Z,25.20
2022-08-12T16:38:26.018Z,25.10
2022-08-12T16:40:55.467Z,25.20
2022-08-12T16:43:26.566Z,25.30
2022-08-12T16:46:05.482Z,25.30
2022-08-12T16:48:40.961Z,25.30
2022-08-12T16:51:10.299Z,25.30
2022-08-12T16:53:43.871Z,25.40
2022-08-12T16:56:14.355Z,25.30
2022-08-12T16:58:42.022Z,25.10
2022-08-12T17:01:13.988Z,25.00
2022-08-12T17:03:47.159Z,24.80
2022-08-12T17:06:22.514Z,24.70
2022-08-12T17:09:02.691Z,24.70
2022-08-12T17:11:32.934Z,24.70
2022-08-12T17:14:00.174Z,24.70
2022-08-12T17:16:30.375Z,24.60
2022-08-12T17:18:59.661Z,24.60
2022-08-12T17:21:40.959Z,24.50
2022-08-12T17:24:21.488Z,24.40
2022-08-12T17:26:49.886Z,24.30
2022-08-12T17:29:23.993Z,24.20
2022-08-12T17:32:07.368Z,24.10
2022-08-12T17:34:53.894Z,24.00
2022-08-12T17:37:21.221Z,23.90
2022-08-12T17:40:12.134Z,23.90
2022-08-12T17:42:35.633Z,23.80
2022-08-12T17:45:17.216Z,23.70
2022-08-12T17:48:00.036Z,23.60
2022-08-12T17:50:28.992Z,23.60
2022-08-12T17:53:02.368Z,23.50
2022-08-12T17:55:43.982Z,23.30
2022-08-12T17:58:15.134Z,23.10
2022-08-12T18:00:43.690Z,22.90
2022-08-12T18:03:11.772Z,22.70
2022-08-12T18:05:55.929Z,22.50
2022-08-12T18:08:29.494Z,22.30
2022-08-12T18:11:21.384Z,22.10
2022-08-12T18:14:01.945Z,22.00
2022-08-12T18:16:29.190Z,21.80
2022-08-12T18:19:01.979Z,21.70
2022-08-12T18:22:02.416Z,21.60
2022-08-12T18:24:21.969Z,21.40
2022-08-12T18:26:51.178Z,21.30
2022-08-12T18:29:19.349Z,21.10
2022-08-12T18:31:59.755Z,21.00
2022-08-12T18:34:32.495Z,20.90
2022-08-12T18:36:59.641Z,20.70
2022-08-12T18:40:02.034Z,20.60
2022-08-12T18:42:30.237Z,20.50
2022-08-12T18:45:02.359Z,20.40
2022-08-12T18:47:46.966Z,20.30
2022-08-12T18:50:16.298Z,20.20
2022-08-12T18:52:48.455Z,20.20
2022-08-12T18:55:16.057Z,20.20
2022-08-12T18:58:08.479Z,20.10
2022-08-12T19:00:33.648Z,20.00
2022-08-12T19:03:02.470Z,20.00
2022-08-12T19:05:52.658Z,19.90
2022-08-12T19:08:15.928Z,19.90
2022-08-12T19:10:50.745Z,19.80
2022-08-12T19:13:37.719Z,19.70
2022-08-12T19:16:10.033Z,19.70
2022-08-12T19:18:40.434Z,19.60
2022-08-12T19:21:16.394Z,19.50
2022-08-12T19:23:44.299Z,19.40
2022-08-12T19:26:12.599Z,19.20
2022-08-12T19:28:40.111Z,19.10
2022-08-12T19:31:55.542Z,19.00
2022-08-12T19:38:04.366Z,18.90
2022-08-12T19:40:20.137Z,18.80
2022-08-12T19:43:00.911Z,18.80
2022-08-12T19:45:42.013Z,18.70
2022-08-12T19:48:17.326Z,18.60
2022-08-12T19:50:44.835Z,18.60
2022-08-12T19:53:18.799Z,18.50
2022-08-12T19:55:51.918Z,18.40
2022-08-12T19:58:20.242Z,18.30
2022-08-12T20:00:52.677Z,18.20
2022-08-12T20:03:38.717Z,18.10
2022-08-12T20:06:15.687Z,18.10
2022-08-12T20:08:47.951Z,17.90
2022-08-12T20:12:12.013Z,18.00
2022-08-12T20:14:04.139Z,17.90
2022-08-12T20:16:57.828Z,17.90
2022-08-12T20:19:52.100Z,17.90
2022-08-12T20:22:23.328Z,17.90
2022-08-12T20:24:55.332Z,17.80
2022-08-12T20:27:29.238Z,17.70
2022-08-12T20:30:13.774Z,17.60
2022-08-12T20:32:50.917Z,17.60
2022-08-12T20:35:19.686Z,17.50
2022-08-12T20:38:06.371Z,17.50
2022-08-12T20:40:34.671Z,17.40
2022-08-12T20:43:06.528Z,17.20
2022-08-12T20:45:50.393Z,17.10
2022-08-12T20:48:18.113Z,17.20
2022-08-12T20:50:51.912Z,17.10
2022-08-12T20:53:27.729Z,17.10
2022-08-12T20:56:19.467Z,17.10
2022-08-12T20:58:46.614Z,16.90
2022-08-12T21:01:15.455Z,16.90
2022-08-12T21:04:05.990Z,16.80
2022-08-12T21:06:52.099Z,16.80
2022-08-12T21:09:22.860Z,16.90
2022-08-12T21:11:55.374Z,16.80
2022-08-12T21:14:39.686Z,16.80
2022-08-12T21:17:15.901Z,16.60
2022-08-12T21:19:52.564Z,16.50
2022-08-12T21:22:24.333Z,16.50
2022-08-12T21:24:52.961Z,16.50
2022-08-12T21:27:19.944Z,16.60
2022-08-12T21:29:50.147Z,16.40
2022-08-12T21:32:40.465Z,16.40
2022-08-12T21:35:08.219Z,16.30
2022-08-12T21:37:37.177Z,16.30
2022-08-12T21:40:13.293Z,16.20
2022-08-12T21:42:41.987Z,16.20
2022-08-12T21:45:45.602Z,16.20
2022-08-12T21:48:00.131Z,16.30
2022-08-12T21:50:29.469Z,16.30
2022-08-12T21:52:57.718Z,16.20
2022-08-12T21:55:26.821Z,16.10
2022-08-12T21:58:02.918Z,16.00
2022-08-12T22:00:36.981Z,15.90
2022-08-12T22:04:04.306Z,15.90
2022-08-12T22:06:31.753Z,15.80
2022-08-12T22:09:16.412Z,15.80
2022-08-12T22:11:56.341Z,15.80
2022-08-12T22:14:26.740Z,15.90
2022-08-12T22:16:54.573Z,15.90
2022-08-12T22:19:21.487Z,16.00
2022-08-12T22:21:52.217Z,16.00
2022-08-12T22:24:26.419Z,15.90
2022-08-12T22:26:58.303Z,15.70
2022-08-12T22:29:43.856Z,15.60
2022-08-12T22:32:12.088Z,15.50
2022-08-12T22:34:39.264Z,15.40
2022-08-12T22:37:11.129Z,15.50
2022-08-12T22:39:43.852Z,15.30
2022-08-12T22:42:30.719Z,15.20
2022-08-12T22:45:16.951Z,15.20
2022-08-12T22:47:53.272Z,15.20
2022-08-12T22:50:26.878Z,15.20
2022-08-12T22:53:18.578Z,15.10
2022-08-12T22:55:59.159Z,15.10
2022-08-12T22:58:33.721Z,15.20
2022-08-12T23:01:02.232Z,15.20
2022-08-12T23:03:48.314Z,15.20
2022-08-12T23:06:22.026Z,15.10
2022-08-12T23:08:49.958Z,15.00
2022-08-12T23:11:23.887Z,14.90
2022-08-12T23:13:56.099Z,14.90
2022-08-12T23:16:33.479Z,15.00
2022-08-12T23:19:10.381Z,14.90
2022-08-12T23:22:03.958Z,14.80
2022-08-12T23:24:55.789Z,14.80
2022-08-12T23:27:51.237Z,14.80
2022-08-12T23:30:31.358Z,14.80
2022-08-12T23:33:02.317Z,14.70
2022-08-12T23:35:46.090Z,14.90
2022-08-12T23:38:31.052Z,14.90
2022-08-12T23:41:00.056Z,14.80
2022-08-12T23:43:38.366Z,14.80
2022-08-12T23:46:08.654Z,14.90
2022-08-12T23:48:35.855Z,14.80
2022-08-12T23:51:21.662Z,14.70
2022-08-12T23:54:02.423Z,14.70
2022-08-12T23:56:34.030Z,14.60
2022-08-12T23:59:05.038Z,14.60
